Time;durP1;ratioP1;P1;durP2;ratioP2;P2;SDS_P1;SDS_P2;PMS_P1;PMS_P2;Temp;Humidity;BMP_temperature;BMP_pressure;BME280_temperature;BME280_humidity;BME280_pressure;Samples;Min_cycle;Max_cycle;Signal;HPM_P1;HPM_P2
2021/07/11 00:02:03;;;;;;;12.07;10.02;;;14.90;99.90;;;;;;4998076;28;20482;-67
2021/07/11 00:04:29;;;;;;;13.68;9.93;;;14.90;99.90;;;;;;5007173;28;20057;-68
2021/07/11 00:06:55;;;;;;;13.13;10.07;;;14.90;99.90;;;;;;5006649;28;20042;-67
2021/07/11 00:09:21;;;;;;;10.98;9.80;;;14.80;99.90;;;;;;5007477;28;20054;-67
2021/07/11 00:11:46;;;;;;;13.52;10.90;;;14.80;99.90;;;;;;5006872;28;20054;-67
2021/07/11 00:14:12;;;;;;;11.52;9.80;;;14.90;99.90;;;;;;5007157;28;20051;-68
2021/07/11 00:16:38;;;;;;;13.80;9.18;;;14.80;99.90;;;;;;5006481;28;20097;-67
2021/07/11 00:19:03;;;;;;;12.68;10.50;;;14.80;99.90;;;;;;5002576;28;20057;-66
2021/07/11 00:21:29;;;;;;;12.80;9.63;;;14.80;99.90;;;;;;5006567;28;20093;-67
2021/07/11 00:23:55;;;;;;;18.70;10.27;;;14.80;99.90;;;;;;4992939;28;20070;-67
2021/07/11 00:26:21;;;;;;;13.15;10.32;;;14.80;99.90;;;;;;4997208;28;20069;-67
2021/07/11 00:28:47;;;;;;;13.60;9.65;;;14.80;99.90;;;;;;5006468;28;20076;-67
2021/07/11 00:31:13;;;;;;;10.93;9.48;;;14.80;99.90;;;;;;5001674;28;20046;-67
2021/07/11 00:33:38;;;;;;;16.10;10.18;;;14.80;99.90;;;;;;5007369;28;20054;-67
2021/07/11 00:36:05;;;;;;;16.60;11.20;;;14.80;99.90;;;;;;5006335;28;20546;-67
2021/07/11 00:38:33;;;;;;;12.65;9.82;;;14.80;99.90;;;;;;5006546;28;20086;-67
2021/07/11 00:40:59;;;;;;;12.15;9.77;;;14.80;99.90;;;;;;5005924;28;20055;-66
2021/07/11 00:43:25;;;;;;;12.27;9.60;;;14.70;99.90;;;;;;5005823;28;20049;-67
2021/07/11 00:45:51;;;;;;;13.73;9.85;;;14.70;99.90;;;;;;5005650;28;20054;-67
2021/07/11 00:48:20;;;;;;;14.85;9.98;;;14.70;99.90;;;;;;5006545;28;20050;-67
2021/07/11 00:50:46;;;;;;;12.63;11.10;;;14.60;99.90;;;;;;5005642;28;20073;-66
2021/07/11 00:53:13;;;;;;;13.65;11.48;;;14.50;99.90;;;;;;5006300;28;20049;-67
2021/07/11 00:55:40;;;;;;;12.45;10.70;;;14.50;99.90;;;;;;5005923;28;20042;-67
2021/07/11 00:58:05;;;;;;;15.00;10.50;;;14.50;99.90;;;;;;5000374;28;20105;-67
2021/07/11 01:00:32;;;;;;;16.80;11.07;;;14.50;99.90;;;;;;4997826;28;20097;-66
2021/07/11 01:03:28;;;;;;;13.32;11.10;;;14.50;99.90;;;;;;5000103;28;20285;-67
2021/07/11 01:05:55;;;;;;;14.88;11.15;;;14.40;99.90;;;;;;4990158;28;20061;-67
2021/07/11 01:08:26;;;;;;;13.43;10.48;;;14.40;99.90;;;;;;4994477;28;20043;-67
2021/07/11 01:11:00;;;;;;;13.48;10.85;;;14.40;99.90;;;;;;4989199;28;20050;-66
2021/07/11 01:13:28;;;;;;;11.93;10.73;;;14.30;99.90;;;;;;4995931;28;20092;-66
2021/07/11 01:15:56;;;;;;;15.55;11.45;;;14.30;99.90;;;;;;5001265;28;20061;-66
2021/07/11 01:18:23;;;;;;;19.92;11.70;;;14.30;99.90;;;;;;5000198;28;20077;-67
2021/07/11 01:20:51;;;;;;;15.30;11.90;;;14.20;99.90;;;;;;4994160;28;20109;-67
2021/07/11 01:23:41;;;;;;;21.83;12.10;;;14.10;99.90;;;;;;4991618;28;20039;-66
2021/07/11 01:26:10;;;;;;;16.60;12.43;;;14.10;99.90;;;;;;4996066;28;20058;-66
2021/07/11 01:28:37;;;;;;;17.88;11.68;;;14.10;99.90;;;;;;5005207;28;20042;-66
2021/07/11 01:31:04;;;;;;;16.38;12.98;;;14.00;99.90;;;;;;5002459;28;20057;-66
2021/07/11 01:33:31;;;;;;;18.00;14.00;;;14.00;99.90;;;;;;4992555;28;20047;-67
2021/07/11 01:35:59;;;;;;;17.70;12.73;;;14.00;99.90;;;;;;4995160;28;20157;-66
2021/07/11 01:38:26;;;;;;;16.67;12.80;;;13.90;99.90;;;;;;5002638;28;20184;-67
2021/07/11 01:40:53;;;;;;;16.43;13.27;;;13.90;99.90;;;;;;4991335;28;20034;-66
2021/07/11 01:43:21;;;;;;;19.23;14.45;;;13.90;99.90;;;;;;4996440;28;20053;-66
2021/07/11 01:45:53;;;;;;;21.70;14.48;;;13.80;99.90;;;;;;4991456;28;20065;-66
2021/07/11 01:48:19;;;;;;;22.23;15.25;;;13.80;99.90;;;;;;4996651;28;20122;-66
2021/07/11 01:50:54;;;;;;;19.73;14.38;;;13.80;99.90;;;;;;4987379;28;20042;-66
2021/07/11 01:53:27;;;;;;;20.48;15.02;;;13.70;99.90;;;;;;4990074;28;20062;-67
2021/07/11 01:55:54;;;;;;;19.98;15.18;;;13.70;99.90;;;;;;5005079;28;20523;-66
2021/07/11 01:58:20;;;;;;;21.08;15.10;;;13.60;99.90;;;;;;5005093;28;20067;-67
2021/07/11 02:00:49;;;;;;;25.75;16.70;;;13.60;99.90;;;;;;5003913;28;20050;-67
2021/07/11 02:03:20;;;;;;;24.55;15.15;;;13.60;99.90;;;;;;4997212;28;20106;-67
2021/07/11 02:05:46;;;;;;;23.08;16.23;;;13.60;99.90;;;;;;4989623;28;20047;-67
2021/07/11 02:08:13;;;;;;;24.48;16.27;;;13.50;99.90;;;;;;4996862;28;20051;-66
2021/07/11 02:10:40;;;;;;;19.70;15.87;;;13.60;99.90;;;;;;4990663;28;20047;-66
2021/07/11 02:13:12;;;;;;;20.23;15.95;;;13.50;99.90;;;;;;4998299;28;20378;-67
2021/07/11 02:15:44;;;;;;;20.92;16.52;;;13.40;99.90;;;;;;4991990;28;20073;-66
2021/07/11 02:18:16;;;;;;;21.92;15.82;;;13.30;99.90;;;;;;5004727;28;20074;-67
2021/07/11 02:20:42;;;;;;;22.70;16.30;;;13.30;99.90;;;;;;5003835;28;20061;-67
2021/07/11 02:23:10;;;;;;;24.00;16.35;;;13.30;99.90;;;;;;5003547;28;20521;-66
2021/07/11 02:25:37;;;;;;;18.50;15.88;;;13.20;99.90;;;;;;4992585;28;20518;-66
2021/07/11 02:28:04;;;;;;;25.13;18.15;;;13.20;99.90;;;;;;4984968;28;20038;-67
2021/07/11 02:30:40;;;;;;;23.83;16.70;;;13.20;99.90;;;;;;4991425;28;20421;-67
2021/07/11 02:33:12;;;;;;;22.70;15.45;;;13.30;99.90;;;;;;4990445;28;20046;-66
2021/07/11 02:35:43;;;;;;;28.95;16.30;;;13.30;99.90;;;;;;4996656;28;20053;-67
2021/07/11 02:38:12;;;;;;;17.08;14.23;;;13.30;99.90;;;;;;5001962;28;20054;-67
2021/07/11 02:40:38;;;;;;;22.25;15.82;;;13.30;99.90;;;;;;4998657;28;20062;-66
2021/07/11 02:43:10;;;;;;;20.92;15.63;;;13.40;99.90;;;;;;5000189;28;20073;-66
2021/07/11 02:45:38;;;;;;;22.45;15.48;;;13.40;99.90;;;;;;4995186;28;20043;-66
2021/07/11 02:48:06;;;;;;;21.58;15.27;;;13.40;99.90;;;;;;4985740;28;20054;-67
2021/07/11 02:50:34;;;;;;;21.10;16.02;;;13.30;99.90;;;;;;4996680;28;20043;-67
2021/07/11 02:53:01;;;;;;;29.02;16.05;;;13.30;99.90;;;;;;4986103;28;20210;-67
2021/07/11 02:55:29;;;;;;;;;;;13.20;99.90;;;;;;4997862;28;20085;-66
2021/07/11 02:58:01;;;;;;;22.15;16.48;;;13.20;99.90;;;;;;4986272;28;20293;-67
2021/07/11 03:00:28;;;;;;;22.92;15.82;;;13.20;99.90;;;;;;4991956;28;20478;-67
2021/07/11 03:02:56;;;;;;;24.83;16.52;;;13.20;99.90;;;;;;4991924;28;20059;-67
2021/07/11 03:05:24;;;;;;;25.20;18.13;;;13.20;99.90;;;;;;4992773;28;20057;-67
2021/07/11 03:07:51;;;;;;;24.42;15.93;;;13.20;99.90;;;;;;4994828;28;20127;-67
2021/07/11 03:10:17;;;;;;;20.55;15.10;;;13.10;99.90;;;;;;4997639;28;20046;-67
2021/07/11 03:12:46;;;;;;;23.55;16.70;;;13.20;99.90;;;;;;4993397;28;20066;-67
2021/07/11 03:15:13;;;;;;;23.45;15.43;;;13.10;99.90;;;;;;4998123;28;20050;-67
2021/07/11 03:17:40;;;;;;;24.73;16.48;;;13.10;99.90;;;;;;5003048;28;20030;-67
2021/07/11 03:20:08;;;;;;;22.63;15.67;;;13.20;99.90;;;;;;4965781;28;1091095;-67
2021/07/11 03:22:35;;;;;;;21.63;15.40;;;13.20;99.90;;;;;;4996551;28;20042;-67
2021/07/11 03:25:05;;;;;;;25.88;16.20;;;13.30;99.90;;;;;;5003345;28;20057;-66
2021/07/11 03:27:31;;;;;;;24.90;15.77;;;13.30;99.90;;;;;;5003621;28;20049;-67
2021/07/11 03:30:04;;;;;;;19.52;15.10;;;13.40;99.90;;;;;;5002468;28;20097;-67
2021/07/11 03:32:34;;;;;;;21.35;15.40;;;13.40;99.90;;;;;;4996503;28;20042;-66
2021/07/11 03:35:01;;;;;;;22.55;15.20;;;13.40;99.90;;;;;;4990155;28;20057;-67
2021/07/11 03:37:30;;;;;;;22.23;14.23;;;13.50;99.90;;;;;;5002903;28;20108;-66
2021/07/11 03:39:58;;;;;;;21.92;16.05;;;13.50;99.90;;;;;;4990310;28;20046;-66
2021/07/11 03:42:26;;;;;;;20.40;15.80;;;13.70;99.90;;;;;;5003106;28;20553;-66
2021/07/11 03:44:55;;;;;;;20.25;14.55;;;13.70;99.90;;;;;;4990343;28;20061;-66
2021/07/11 03:47:23;;;;;;;20.52;15.05;;;13.70;99.90;;;;;;5003335;28;20046;-66
2021/07/11 03:49:52;;;;;;;18.60;14.10;;;13.70;99.90;;;;;;5003008;28;20057;-66
2021/07/11 03:52:22;;;;;;;19.60;14.40;;;13.70;99.90;;;;;;4997353;28;20069;-67
2021/07/11 03:54:49;;;;;;;22.10;14.25;;;13.80;99.90;;;;;;4990538;28;20054;-67
2021/07/11 03:57:15;;;;;;;20.40;14.68;;;13.80;99.90;;;;;;4984575;28;20049;-67
2021/07/11 03:59:44;;;;;;;17.80;14.18;;;13.90;99.90;;;;;;4992166;28;20053;-67
2021/07/11 04:02:11;;;;;;;21.50;14.25;;;14.00;99.90;;;;;;4984890;28;20046;-66
2021/07/11 04:04:39;;;;;;;18.75;14.32;;;14.00;99.90;;;;;;4992061;28;20058;-67
2021/07/11 04:07:06;;;;;;;17.88;13.88;;;14.00;99.90;;;;;;4987681;28;20070;-66
2021/07/11 04:09:34;;;;;;;22.90;15.07;;;14.10;99.90;;;;;;5003514;28;20073;-66
2021/07/11 04:12:00;;;;;;;18.55;14.60;;;14.10;99.90;;;;;;4989465;28;20043;-66
2021/07/11 04:14:25;;;;;;;18.88;13.48;;;14.20;99.90;;;;;;4999594;28;20066;-67
2021/07/11 04:16:56;;;;;;;17.05;13.65;;;14.30;99.90;;;;;;4989318;28;20440;-66
2021/07/11 04:19:27;;;;;;;19.15;13.55;;;14.40;99.90;;;;;;4998536;28;20046;-67
2021/07/11 04:21:55;;;;;;;17.95;13.15;;;14.40;99.90;;;;;;5008420;28;20050;-67
2021/07/11 04:24:21;;;;;;;17.63;14.65;;;14.50;99.90;;;;;;4996984;28;20047;-66
2021/07/11 04:26:48;;;;;;;17.77;13.80;;;14.40;99.90;;;;;;4990259;28;20042;-66
2021/07/11 04:29:16;;;;;;;16.17;13.13;;;14.50;99.90;;;;;;4995970;28;20074;-66
2021/07/11 04:31:44;;;;;;;14.63;12.40;;;14.60;99.90;;;;;;4989628;28;20062;-67
2021/07/11 04:34:31;;;;;;;16.33;12.85;;;14.60;99.90;;;;;;4994811;28;20046;-67
2021/07/11 04:36:59;;;;;;;16.55;13.00;;;14.60;99.90;;;;;;4996640;28;20050;-67
2021/07/11 04:39:25;;;;;;;16.00;11.75;;;14.80;99.90;;;;;;4995960;28;20122;-67
2021/07/11 04:41:52;;;;;;;16.15;11.88;;;14.90;99.90;;;;;;4991236;28;20050;-67
2021/07/11 04:44:18;;;;;;;16.92;13.32;;;14.90;99.90;;;;;;4997515;28;20050;-66
2021/07/11 04:46:44;;;;;;;15.70;12.13;;;15.00;99.90;;;;;;4998667;28;20046;-66
2021/07/11 04:49:11;;;;;;;19.13;12.95;;;15.10;99.90;;;;;;5006436;28;20050;-67
2021/07/11 04:51:37;;;;;;;17.50;13.10;;;15.00;99.90;;;;;;4999707;28;20061;-66
2021/07/11 04:54:04;;;;;;;18.35;13.27;;;15.10;99.90;;;;;;5005738;28;20042;-66
2021/07/11 04:56:31;;;;;;;14.32;12.20;;;15.20;99.90;;;;;;5006238;28;20046;-66
2021/07/11 04:58:57;;;;;;;14.50;12.18;;;15.10;99.90;;;;;;4992669;28;20152;-66
2021/07/11 05:01:25;;;;;;;16.00;11.90;;;15.20;99.90;;;;;;5005870;28;20495;-66
2021/07/11 05:03:52;;;;;;;15.48;12.07;;;15.20;99.90;;;;;;4992695;28;20046;-67
2021/07/11 05:06:18;;;;;;;17.50;13.40;;;15.20;99.90;;;;;;5000380;28;20046;-66
2021/07/11 05:08:43;;;;;;;17.67;12.82;;;15.30;99.90;;;;;;5005469;28;20073;-67
2021/07/11 05:11:10;;;;;;;16.35;13.25;;;15.20;99.90;;;;;;5005624;28;20069;-66
2021/07/11 05:13:35;;;;;;;15.55;12.90;;;15.30;99.90;;;;;;4992791;28;20047;-67
2021/07/11 05:16:01;;;;;;;15.25;13.68;;;15.30;99.90;;;;;;5005477;28;20046;-65
2021/07/11 05:18:27;;;;;;;15.45;13.02;;;15.40;99.90;;;;;;5006323;28;20073;-66
2021/07/11 05:20:53;;;;;;;16.65;13.18;;;15.40;99.90;;;;;;4991751;28;20145;-66
2021/07/11 05:23:19;;;;;;;13.95;12.25;;;15.50;99.90;;;;;;5005189;28;20104;-66
2021/07/11 05:25:44;;;;;;;14.90;11.57;;;15.60;99.90;;;;;;4992974;28;20047;-66
2021/07/11 05:28:10;;;;;;;15.13;12.43;;;15.60;99.90;;;;;;5002658;28;20129;-66
2021/07/11 05:30:36;;;;;;;19.77;11.88;;;15.70;99.90;;;;;;5004583;28;20057;-66
2021/07/11 05:33:03;;;;;;;15.50;12.30;;;15.90;99.90;;;;;;5002436;28;20050;-66
2021/07/11 05:35:28;;;;;;;12.40;10.32;;;15.80;99.90;;;;;;4991432;28;20046;-66
2021/07/11 05:37:54;;;;;;;14.25;12.07;;;16.00;99.90;;;;;;4998640;28;20046;-66
2021/07/11 05:40:21;;;;;;;13.63;11.65;;;16.10;99.90;;;;;;4998610;28;20053;-66
2021/07/11 05:42:47;;;;;;;13.95;11.18;;;16.20;99.90;;;;;;5005340;28;20046;-67
2021/07/11 05:45:13;;;;;;;17.10;12.60;;;16.30;99.90;;;;;;4996872;28;20065;-67
2021/07/11 05:47:39;;;;;;;17.10;11.93;;;16.20;99.90;;;;;;5005043;28;20106;-67
2021/07/11 05:50:07;;;;;;;14.45;11.98;;;16.20;99.90;;;;;;5005210;28;20050;-67
2021/07/11 05:52:34;;;;;;;18.25;11.65;;;16.30;99.90;;;;;;5005061;28;20084;-67
2021/07/11 05:55:00;;;;;;;14.50;9.60;;;16.40;99.90;;;;;;5002442;28;20539;-67
2021/07/11 05:57:27;;;;;;;13.05;11.23;;;16.40;99.90;;;;;;4992469;28;20038;-67
2021/07/11 05:59:54;;;;;;;14.43;11.85;;;16.50;99.90;;;;;;5002694;28;20546;-67
2021/07/11 06:02:21;;;;;;;16.30;11.82;;;16.50;99.90;;;;;;4997494;28;20046;-68
2021/07/11 06:04:47;;;;;;;17.88;11.48;;;16.70;99.90;;;;;;4998639;28;20046;-68
2021/07/11 06:07:13;;;;;;;12.68;9.75;;;16.80;99.90;;;;;;5004737;28;20096;-67
2021/07/11 06:09:39;;;;;;;12.57;10.13;;;17.00;99.90;;;;;;5004447;28;20061;-67
2021/07/11 06:12:05;;;;;;;12.10;9.15;;;17.30;99.90;;;;;;4991268;28;20077;-68
2021/07/11 06:14:30;;;;;;;13.63;9.48;;;17.40;99.90;;;;;;4998180;28;20042;-68
2021/07/11 06:16:56;;;;;;;11.18;9.60;;;17.50;99.90;;;;;;4995342;28;20055;-68
2021/07/11 06:19:22;;;;;;;13.43;9.15;;;17.70;99.90;;;;;;4991416;28;20050;-67
2021/07/11 06:21:49;;;;;;;11.40;8.88;;;17.70;99.90;;;;;;4996892;28;20046;-68
2021/07/11 06:24:15;;;;;;;10.35;7.97;;;17.80;99.90;;;;;;5003060;28;20065;-68
2021/07/11 06:26:42;;;;;;;12.90;7.95;;;17.90;99.90;;;;;;4998519;28;20058;-67
2021/07/11 06:29:08;;;;;;;10.20;7.83;;;18.00;99.90;;;;;;5002203;28;20046;-67
2021/07/11 06:31:34;;;;;;;9.13;7.13;;;18.00;99.90;;;;;;4997273;28;20098;-68
2021/07/11 06:34:00;;;;;;;8.80;7.50;;;18.10;99.90;;;;;;4989752;28;20108;-67
2021/07/11 06:36:27;;;;;;;9.57;7.32;;;18.30;99.90;;;;;;4999109;28;20103;-68
2021/07/11 06:38:53;;;;;;;8.50;7.15;;;18.30;99.90;;;;;;5004068;28;20089;-68
2021/07/11 06:41:19;;;;;;;9.93;7.47;;;18.30;99.90;;;;;;5004261;28;20116;-68
2021/07/11 06:43:45;;;;;;;8.32;7.28;;;18.30;99.90;;;;;;4997341;28;20042;-68
2021/07/11 06:46:10;;;;;;;8.73;6.55;;;18.40;99.90;;;;;;4996630;28;20074;-68
2021/07/11 06:48:37;;;;;;;10.52;7.50;;;18.50;99.90;;;;;;4999494;28;20050;-68
2021/07/11 06:51:04;;;;;;;8.60;6.18;;;18.40;99.90;;;;;;4992581;28;20113;-68
2021/07/11 06:53:30;;;;;;;7.75;6.15;;;18.50;99.90;;;;;;5004166;28;20081;-68
2021/07/11 06:55:55;;;;;;;9.52;7.35;;;18.60;99.90;;;;;;5003720;28;20042;-67
2021/07/11 06:58:21;;;;;;;8.90;6.40;;;18.70;99.90;;;;;;4994961;28;20047;-67
2021/07/11 07:00:47;;;;;;;8.70;6.47;;;18.70;99.90;;;;;;4989964;28;20054;-66
2021/07/11 07:03:14;;;;;;;7.82;7.03;;;18.80;99.90;;;;;;4995925;28;20048;-66
2021/07/11 07:05:39;;;;;;;8.35;6.68;;;18.90;99.90;;;;;;4988849;28;20042;-67
2021/07/11 07:08:05;;;;;;;10.02;6.97;;;18.90;99.90;;;;;;5003517;28;20114;-67
2021/07/11 07:10:31;;;;;;;12.93;7.70;;;18.90;99.90;;;;;;4988761;28;20600;-67
2021/07/11 07:12:57;;;;;;;7.43;6.60;;;19.00;99.90;;;;;;4995825;28;20046;-67
2021/07/11 07:15:23;;;;;;;8.35;7.18;;;19.00;99.90;;;;;;4992735;28;20097;-67
2021/07/11 07:17:48;;;;;;;9.95;7.35;;;19.30;99.90;;;;;;5004255;28;20034;-67
2021/07/11 07:20:15;;;;;;;8.65;6.82;;;19.40;99.90;;;;;;4994546;28;20057;-67
2021/07/11 07:22:41;;;;;;;8.45;6.90;;;19.40;99.90;;;;;;5001339;28;20059;-67
2021/07/11 07:25:10;;;;;;;10.02;7.20;;;19.40;99.90;;;;;;4994227;28;20053;-67
2021/07/11 07:27:36;;;;;;;9.90;6.63;;;19.70;99.90;;;;;;5001448;28;20478;-67
2021/07/11 07:30:03;;;;;;;9.95;6.38;;;20.00;99.90;;;;;;5000603;28;20070;-67
2021/07/11 07:32:29;;;;;;;8.75;6.75;;;20.10;99.90;;;;;;4991202;28;20055;-67
2021/07/11 07:34:54;;;;;;;11.10;6.75;;;20.10;99.90;;;;;;4991652;28;20066;-68
2021/07/11 07:37:20;;;;;;;7.50;5.43;;;20.10;99.90;;;;;;4993557;28;20043;-67
2021/07/11 07:39:46;;;;;;;9.70;6.82;;;20.30;99.90;;;;;;4999346;28;20051;-68
2021/07/11 07:42:12;;;;;;;8.80;6.50;;;20.20;99.90;;;;;;4988859;28;20096;-67
2021/07/11 07:44:37;;;;;;;7.32;6.43;;;20.40;99.90;;;;;;4990666;28;20094;-67
2021/07/11 07:47:04;;;;;;;8.00;5.82;;;20.70;99.90;;;;;;4993878;28;20054;-67
2021/07/11 07:49:29;;;;;;;6.72;5.95;;;20.80;99.90;;;;;;4988202;28;20050;-67
2021/07/11 07:51:55;;;;;;;10.35;6.38;;;20.80;99.90;;;;;;4995942;28;20043;-67
2021/07/11 07:54:21;;;;;;;9.65;7.50;;;20.80;99.90;;;;;;4990651;28;20120;-67
2021/07/11 07:56:47;;;;;;;8.73;5.82;;;21.00;99.90;;;;;;4990902;28;20050;-67
2021/07/11 07:59:12;;;;;;;7.28;6.00;;;21.10;99.90;;;;;;4996011;28;20502;-67
2021/07/11 08:01:38;;;;;;;7.45;5.18;;;21.30;99.90;;;;;;4991453;28;20077;-67
2021/07/11 08:04:05;;;;;;;10.63;6.38;;;21.00;99.90;;;;;;4990671;28;20042;-67
2021/07/11 08:06:32;;;;;;;6.33;5.57;;;21.20;99.90;;;;;;4994599;28;20133;-68
2021/07/11 08:08:58;;;;;;;7.90;6.23;;;21.40;99.90;;;;;;4992797;28;20050;-67
2021/07/11 08:11:24;;;;;;;6.97;6.20;;;21.00;99.90;;;;;;4999895;28;20050;-67
2021/07/11 08:13:50;;;;;;;8.68;6.60;;;21.10;99.90;;;;;;5000380;28;20070;-67
2021/07/11 08:16:16;;;;;;;6.60;5.47;;;21.30;99.90;;;;;;4991879;28;20038;-67
2021/07/11 08:18:43;;;;;;;7.43;5.90;;;21.20;99.90;;;;;;5000414;28;20057;-67
2021/07/11 08:21:09;;;;;;;8.68;5.78;;;21.10;99.90;;;;;;4999975;28;20050;-67
2021/07/11 08:23:35;;;;;;;8.27;5.70;;;21.30;99.90;;;;;;4996748;28;20104;-67
2021/07/11 08:26:01;;;;;;;8.05;6.93;;;21.30;99.90;;;;;;5002856;28;20074;-67
2021/07/11 08:28:26;;;;;;;8.38;7.57;;;21.30;99.90;;;;;;5001652;28;20033;-67
2021/07/11 08:30:52;;;;;;;8.73;7.13;;;21.40;99.90;;;;;;4995138;28;20046;-66
2021/07/11 08:33:18;;;;;;;9.35;7.30;;;21.40;99.90;;;;;;5000441;28;20043;-67
2021/07/11 08:35:44;;;;;;;11.90;7.25;;;21.30;99.90;;;;;;4995397;28;20160;-67
2021/07/11 08:38:09;;;;;;;10.27;7.57;;;21.30;99.90;;;;;;4998370;28;20078;-67
2021/07/11 08:40:35;;;;;;;7.88;6.22;;;21.50;99.90;;;;;;5004991;28;20046;-67
2021/07/11 08:43:07;;;;;;;7.75;6.32;;;21.70;99.90;;;;;;4994744;28;20047;-67
2021/07/11 08:45:34;;;;;;;9.85;7.43;;;21.80;99.90;;;;;;4990933;28;20046;-66
2021/07/11 08:48:00;;;;;;;8.75;7.15;;;21.90;99.90;;;;;;4997092;28;20103;-67
2021/07/11 08:50:27;;;;;;;7.53;6.82;;;22.10;99.90;;;;;;4995945;28;20121;-68
2021/07/11 08:52:54;;;;;;;9.82;7.75;;;22.10;99.90;;;;;;4999223;28;20050;-67
2021/07/11 08:55:25;;;;;;;9.73;8.20;;;22.30;99.90;;;;;;4996382;28;20521;-68
2021/07/11 08:57:53;;;;;;;9.32;7.55;;;22.10;99.90;;;;;;5002673;28;20046;-68
2021/07/11 09:00:24;;;;;;;9.95;7.40;;;22.10;99.90;;;;;;4991860;28;20035;-68
2021/07/11 09:02:50;;;;;;;12.05;6.85;;;22.40;99.90;;;;;;4992345;28;20052;-67
2021/07/11 09:05:24;;;;;;;8.73;6.43;;;22.60;99.90;;;;;;4998308;28;20050;-67
2021/07/11 09:08:00;;;;;;;9.48;6.97;;;22.90;99.90;;;;;;4992839;28;20519;-67
2021/07/11 09:10:39;;;;;;;9.18;7.72;;;23.30;99.90;;;;;;4996633;28;20077;-67
2021/07/11 09:13:12;;;;;;;8.48;7.60;;;23.00;99.90;;;;;;4990400;28;20051;-67
2021/07/11 09:15:41;;;;;;;9.25;6.35;;;23.00;99.90;;;;;;4998829;28;20049;-67
2021/07/11 09:18:07;;;;;;;8.90;6.25;;;23.00;99.90;;;;;;4988967;28;20635;-67
2021/07/11 09:20:57;;;;;;;9.02;7.10;;;23.50;99.90;;;;;;4997578;28;20066;-67
2021/07/11 09:23:25;;;;;;;8.23;6.88;;;23.40;99.90;;;;;;4992107;28;20076;-67
2021/07/11 09:26:04;;;;;;;9.45;7.10;;;23.50;99.90;;;;;;4997753;28;20081;-67
2021/07/11 09:28:33;;;;;;;8.88;6.65;;;23.40;99.90;;;;;;4990360;28;20074;-67
2021/07/11 09:31:16;;;;;;;7.60;6.10;;;23.50;99.90;;;;;;4996837;28;20066;-67
2021/07/11 09:33:45;;;;;;;9.70;6.57;;;23.20;99.90;;;;;;4997913;28;20070;-66
2021/07/11 09:36:19;;;;;;;9.13;6.25;;;23.10;99.90;;;;;;4995607;28;20622;-67
2021/07/11 09:38:54;;;;;;;6.65;5.90;;;23.50;99.90;;;;;;5002222;28;20048;-67
2021/07/11 09:41:24;;;;;;;7.60;6.63;;;23.40;99.90;;;;;;4996111;28;20057;-67
2021/07/11 09:43:52;;;;;;;7.85;6.10;;;23.30;99.90;;;;;;4988310;28;20046;-63
2021/07/11 09:46:19;;;;;;;9.27;6.10;;;23.60;99.90;;;;;;4989262;28;20046;-65
2021/07/11 09:48:47;;;;;;;7.65;5.80;;;23.50;99.90;;;;;;5004690;28;20035;-64
2021/07/11 09:51:26;;;;;;;8.75;6.68;;;23.60;99.90;;;;;;4999617;28;20043;-66
2021/07/11 09:53:53;;;;;;;7.75;5.22;;;23.80;99.90;;;;;;4995629;28;20042;-64
2021/07/11 09:56:29;;;;;;;8.05;6.47;;;24.30;99.90;;;;;;4994559;28;20053;-67
2021/07/11 09:58:56;;;;;;;7.00;6.30;;;24.10;99.90;;;;;;4991136;28;20042;-69
2021/07/11 10:01:23;;;;;;;7.80;6.10;;;24.10;99.90;;;;;;4992556;28;20125;-65
2021/07/11 10:03:48;;;;;;;9.13;6.10;;;23.90;99.90;;;;;;4992579;28;20053;-65
2021/07/11 10:06:15;;;;;;;9.20;6.23;;;24.10;99.90;;;;;;4996010;28;20557;-67
2021/07/11 10:08:42;;;;;;;7.40;5.45;;;23.80;99.90;;;;;;4995401;28;20716;-67
2021/07/11 10:11:08;;;;;;;8.35;5.28;;;24.20;99.90;;;;;;5008732;28;20046;-65
2021/07/11 10:13:34;;;;;;;7.95;6.50;;;24.00;99.90;;;;;;4996006;28;20057;-63
2021/07/11 10:16:01;;;;;;;5.85;5.25;;;24.00;99.90;;;;;;4993483;28;20072;-70
2021/07/11 10:18:29;;;;;;;6.72;6.03;;;24.00;99.90;;;;;;5002910;28;20097;-65
2021/07/11 10:20:58;;;;;;;;;;;23.80;99.90;;;;;;4999854;28;20073;-64
2021/07/11 10:23:37;;;;;;;7.43;5.53;;;24.10;99.90;;;;;;4987775;28;19965;-69
2021/07/11 10:26:09;;;;;;;7.65;4.93;;;24.10;99.90;;;;;;4996114;28;20050;-66
2021/07/11 10:28:38;;;;;;;7.82;5.65;;;24.40;99.90;;;;;;4991739;28;20070;-67
2021/07/11 10:31:16;;;;;;;7.85;5.47;;;24.90;99.90;;;;;;5001598;28;20047;-65
2021/07/11 10:33:44;;;;;;;6.50;5.63;;;24.90;99.90;;;;;;4987646;28;20394;-64
2021/07/11 10:36:10;;;;;;;7.45;6.25;;;24.50;99.90;;;;;;4986504;28;20057;-64
2021/07/11 10:39:03;;;;;;;6.55;5.18;;;24.40;99.90;;;;;;4986682;28;20047;-64
2021/07/11 10:41:31;;;;;;;10.23;5.65;;;24.40;99.90;;;;;;4984497;28;20058;-64
2021/07/11 10:44:09;;;;;;;12.55;6.47;;;24.20;99.90;;;;;;4992860;28;20073;-65
2021/07/11 10:46:47;;;;;;;6.05;5.13;;;24.10;99.90;;;;;;4985636;28;20490;-69
2021/07/11 10:49:27;;;;;;;7.63;5.00;;;24.20;99.90;;;;;;4989954;28;20038;-68
2021/07/11 10:51:56;;;;;;;7.38;5.13;;;24.40;99.90;;;;;;5003441;28;20042;-68
2021/07/11 10:54:31;;;;;;;7.70;5.13;;;24.50;99.90;;;;;;4997254;28;20042;-65
2021/07/11 10:57:25;;;;;;;5.70;5.05;;;24.50;99.90;;;;;;4996584;28;20065;-65
2021/07/11 10:59:51;;;;;;;7.18;5.40;;;24.40;99.90;;;;;;4987380;28;20058;-65
2021/07/11 11:02:28;;;;;;;5.95;5.00;;;24.70;99.90;;;;;;4988257;28;20067;-64
2021/07/11 11:05:00;;;;;;;8.18;5.82;;;24.70;99.90;;;;;;5003685;28;20054;-64
2021/07/11 11:07:39;;;;;;;7.05;5.78;;;24.90;99.90;;;;;;4990381;28;20046;-67
2021/07/11 11:10:16;;;;;;;5.88;5.20;;;24.60;99.90;;;;;;4996154;28;20550;-65
2021/07/11 11:12:41;;;;;;;9.50;5.30;;;24.50;99.90;;;;;;4992703;28;20058;-64
2021/07/11 11:15:15;;;;;;;5.85;5.25;;;24.50;99.90;;;;;;4995062;28;20054;-64
2021/07/11 11:17:42;;;;;;;6.25;4.55;;;24.60;99.90;;;;;;4996452;28;20053;-62
2021/07/11 11:20:17;;;;;;;7.18;5.10;;;25.10;99.90;;;;;;4992548;28;20043;-65
2021/07/11 11:22:53;;;;;;;9.60;5.07;;;25.20;99.90;;;;;;4992642;28;20108;-61
2021/07/11 11:25:23;;;;;;;6.05;4.80;;;25.50;99.90;;;;;;4998566;28;20053;-62
2021/07/11 11:27:54;;;;;;;6.32;4.72;;;25.70;99.90;;;;;;4992156;28;20043;-65
2021/07/11 11:30:22;;;;;;;7.43;5.28;;;25.70;99.90;;;;;;4991005;28;20038;-66
2021/07/11 11:32:53;;;;;;;6.28;5.25;;;25.00;99.90;;;;;;4997973;28;20089;-64
2021/07/11 11:35:21;;;;;;;6.60;5.47;;;25.10;99.90;;;;;;4989347;28;20042;-68
2021/07/11 11:37:53;;;;;;;7.45;5.55;;;24.80;99.90;;;;;;5000044;28;20054;-67
2021/07/11 11:40:21;;;;;;;9.80;5.50;;;24.70;99.90;;;;;;4993765;28;20548;-66
2021/07/11 11:42:49;;;;;;;7.07;5.38;;;24.80;99.90;;;;;;4989622;28;20094;-64
2021/07/11 11:45:16;;;;;;;7.57;5.10;;;24.60;99.90;;;;;;5000495;28;20050;-66
2021/07/11 11:47:43;;;;;;;6.18;5.50;;;24.40;99.90;;;;;;4992201;28;20097;-67
2021/07/11 11:50:14;;;;;;;7.70;5.20;;;24.60;99.90;;;;;;4992187;28;20046;-68
2021/07/11 11:52:40;;;;;;;5.53;4.70;;;24.40;99.90;;;;;;5002448;28;20034;-68
2021/07/11 11:55:06;;;;;;;7.53;4.22;;;24.50;99.90;;;;;;4998973;28;20057;-70
2021/07/11 11:57:33;;;;;;;7.35;5.07;;;24.60;99.90;;;;;;4994242;28;20042;-71
2021/07/11 11:59:58;;;;;;;6.30;4.75;;;24.70;99.90;;;;;;4994369;28;20051;-73
2021/07/11 12:02:25;;;;;;;6.85;4.95;;;24.50;99.90;;;;;;5007156;28;20111;-70
2021/07/11 12:04:51;;;;;;;6.82;4.82;;;24.00;99.90;;;;;;5005530;28;20065;-70
2021/07/11 12:07:17;;;;;;;7.35;5.70;;;23.90;99.90;;;;;;5001936;28;20034;-72
2021/07/11 12:09:45;;;;;;;6.53;5.10;;;23.60;99.90;;;;;;4997157;28;20054;-68
2021/07/11 12:12:12;;;;;;;6.85;5.35;;;23.60;99.90;;;;;;4990868;28;20085;-70
2021/07/11 12:14:43;;;;;;;7.07;5.28;;;23.50;99.90;;;;;;4997774;28;20057;-65
2021/07/11 12:17:16;;;;;;;8.82;5.60;;;23.40;99.90;;;;;;4993545;28;20047;-67
2021/07/11 12:19:53;;;;;;;6.57;5.47;;;23.50;99.90;;;;;;5002214;28;20129;-67
2021/07/11 12:22:20;;;;;;;6.07;5.05;;;23.30;99.90;;;;;;4991847;28;20531;-72
2021/07/11 12:25:12;;;;;;;6.75;5.85;;;23.20;99.90;;;;;;4997324;28;20090;-67
2021/07/11 12:27:41;;;;;;;8.18;6.00;;;23.30;99.90;;;;;;4997131;28;20042;-68
2021/07/11 12:30:13;;;;;;;8.07;5.97;;;23.20;99.90;;;;;;5001189;28;20046;-68
2021/07/11 12:32:48;;;;;;;6.57;5.65;;;23.40;99.90;;;;;;4992384;28;20031;-63
2021/07/11 12:35:16;;;;;;;9.35;5.47;;;23.10;99.90;;;;;;4993482;28;20491;-76
2021/07/11 12:37:51;;;;;;;;;;;23.30;99.90;;;;;;4993219;28;20047;-70
2021/07/11 12:40:19;;;;;;;8.80;4.78;;;23.20;99.90;;;;;;4989203;28;20072;-64
2021/07/11 12:42:45;;;;;;;6.57;4.57;;;23.30;99.90;;;;;;4993850;28;20051;-65
2021/07/11 12:45:19;;;;;;;6.55;4.85;;;23.20;99.90;;;;;;4999823;28;20050;-65